sensor_id;sensor_type;location;lat;lon;timestamp;pressure;altitude;pressure_sealevel;temperature;humidity
6853;BME280;3465;42.144;24.722;2023-08-24T00:01:36;148876.31;;;23.78;nan
6853;BME280;3465;42.144;24.722;2023-08-24T00:04:02;148881.38;;;23.80;nan
6853;BME280;3465;42.144;24.722;2023-08-24T00:06:28;148883.91;;;23.81;nan
6853;BME280;3465;42.144;24.722;2023-08-24T00:08:53;148881.38;;;23.80;nan
6853;BME280;3465;42.144;24.722;2023-08-24T00:11:19;148881.38;;;23.80;nan
6853;BME280;3465;42.144;24.722;2023-08-24T00:13:44;148871.28;;;23.76;nan
6853;BME280;3465;42.144;24.722;2023-08-24T00:16:19;148804.19;;;23.50;nan
6853;BME280;3465;42.144;24.722;2023-08-24T00:18:45;148772.56;;;23.37;nan
6853;BME280;3465;42.144;24.722;2023-08-24T00:21:13;148814.31;;;23.54;nan
6853;BME280;3465;42.144;24.722;2023-08-24T00:23:42;148806.69;;;23.51;nan
6853;BME280;3465;42.144;24.722;2023-08-24T00:26:08;148818.13;;;23.55;nan
6853;BME280;3465;42.144;24.722;2023-08-24T00:28:33;148807.97;;;23.51;nan
6853;BME280;3465;42.144;24.722;2023-08-24T00:30:58;148813.03;;;23.53;nan
6853;BME280;3465;42.144;24.722;2023-08-24T00:33:24;148804.19;;;23.50;nan
6853;BME280;3465;42.144;24.722;2023-08-24T00:35:49;148810.53;;;23.52;nan
6853;BME280;3465;42.144;24.722;2023-08-24T00:38:15;148809.25;;;23.52;nan
6853;BME280;3465;42.144;24.722;2023-08-24T00:40:42;148771.28;;;23.37;nan
6853;BME280;3465;42.144;24.722;2023-08-24T00:43:09;148782.66;;;23.41;nan
6853;BME280;3465;42.144;24.722;2023-08-24T00:45:34;148754.81;;;23.30;nan
6853;BME280;3465;42.144;24.722;2023-08-24T00:48:01;148770.03;;;23.36;nan
6853;BME280;3465;42.144;24.722;2023-08-24T00:50:28;148787.72;;;23.43;nan
6853;BME280;3465;42.144;24.722;2023-08-24T00:52:54;148756.09;;;23.31;nan
6853;BME280;3465;42.144;24.722;2023-08-24T00:55:20;148704.19;;;23.10;nan
6853;BME280;3465;42.144;24.722;2023-08-24T00:57:47;148696.59;;;23.07;nan
6853;BME280;3465;42.144;24.722;2023-08-24T01:00:14;148701.59;;;23.09;nan
6853;BME280;3465;42.144;24.722;2023-08-24T01:02:40;148696.59;;;23.07;nan
6853;BME280;3465;42.144;24.722;2023-08-24T01:05:06;148686.44;;;23.03;nan
6853;BME280;3465;42.144;24.722;2023-08-24T01:07:37;148589.03;;;22.64;nan
6853;BME280;3465;42.144;24.722;2023-08-24T01:10:05;148640.88;;;22.85;nan
6853;BME280;3465;42.144;24.722;2023-08-24T01:15:43;148567.56;;;22.56;nan
6853;BME280;3465;42.144;24.722;2023-08-24T01:18:08;148513.13;;;22.34;nan
6853;BME280;3465;42.144;24.722;2023-08-24T01:20:37;148514.41;;;22.35;nan
6853;BME280;3465;42.144;24.722;2023-08-24T01:26:14;148534.63;;;22.43;nan
6853;BME280;3465;42.144;24.722;2023-08-24T01:28:43;148516.91;;;22.36;nan
6853;BME280;3465;42.144;24.722;2023-08-24T01:31:09;148514.41;;;22.35;nan
6853;BME280;3465;42.144;24.722;2023-08-24T01:33:35;148516.91;;;22.36;nan
6853;BME280;3465;42.144;24.722;2023-08-24T01:36:00;148530.84;;;22.41;nan
6853;BME280;3465;42.144;24.722;2023-08-24T01:38:26;148477.72;;;22.20;nan
6853;BME280;3465;42.144;24.722;2023-08-24T01:41:30;148453.72;;;22.11;nan
6853;BME280;3465;42.144;24.722;2023-08-24T01:43:59;148461.28;;;22.14;nan
6853;BME280;3465;42.144;24.722;2023-08-24T01:46:26;148472.66;;;22.18;nan
6853;BME280;3465;42.144;24.722;2023-08-24T01:48:54;148470.16;;;22.17;nan
6853;BME280;3465;42.144;24.722;2023-08-24T01:51:20;148473.94;;;22.19;nan
6853;BME280;3465;42.144;24.722;2023-08-24T01:53:47;148472.66;;;22.18;nan
6853;BME280;3465;42.144;24.722;2023-08-24T01:56:14;148458.72;;;22.13;nan
6853;BME280;3465;42.144;24.722;2023-08-24T01:58:40;148456.22;;;22.12;nan
6853;BME280;3465;42.144;24.722;2023-08-24T02:01:07;148433.47;;;22.03;nan
6853;BME280;3465;42.144;24.722;2023-08-24T02:03:33;148419.56;;;21.97;nan
6853;BME280;3465;42.144;24.722;2023-08-24T02:05:58;148422.06;;;21.98;nan
6853;BME280;3465;42.144;24.722;2023-08-24T02:08:24;148399.31;;;21.89;nan
6853;BME280;3465;42.144;24.722;2023-08-24T02:10:50;148439.78;;;22.05;nan
6853;BME280;3465;42.144;24.722;2023-08-24T02:13:15;148415.75;;;21.96;nan
6853;BME280;3465;42.144;24.722;2023-08-24T02:15:41;148385.44;;;21.84;nan
6853;BME280;3465;42.144;24.722;2023-08-24T02:18:07;148423.34;;;21.99;nan
6853;BME280;3465;42.144;24.722;2023-08-24T02:20:38;148419.56;;;21.97;nan
6853;BME280;3465;42.144;24.722;2023-08-24T02:23:04;148429.69;;;22.01;nan
6853;BME280;3465;42.144;24.722;2023-08-24T02:25:30;148420.84;;;21.98;nan
6853;BME280;3465;42.144;24.722;2023-08-24T02:27:55;148338.59;;;21.65;nan
6853;BME280;3465;42.144;24.722;2023-08-24T02:30:21;148365.22;;;21.76;nan
6853;BME280;3465;42.144;24.722;2023-08-24T02:32:46;148360.09;;;21.74;nan
6853;BME280;3465;42.144;24.722;2023-08-24T02:35:13;148317.09;;;21.57;nan
6853;BME280;3465;42.144;24.722;2023-08-24T02:37:38;148343.69;;;21.67;nan
6853;BME280;3465;42.144;24.722;2023-08-24T02:40:04;148337.34;;;21.65;nan
6853;BME280;3465;42.144;24.722;2023-08-24T02:42:31;148334.81;;;21.64;nan
6853;BME280;3465;42.144;24.722;2023-08-24T02:44:57;148317.09;;;21.57;nan
6853;BME280;3465;42.144;24.722;2023-08-24T02:47:23;148288.09;;;21.45;nan
6853;BME280;3465;42.144;24.722;2023-08-24T02:49:48;148320.91;;;21.58;nan
6853;BME280;3465;42.144;24.722;2023-08-24T02:52:14;148317.09;;;21.57;nan
6853;BME280;3465;42.144;24.722;2023-08-24T02:54:39;148325.97;;;21.60;nan
6853;BME280;3465;42.144;24.722;2023-08-24T02:57:04;148317.09;;;21.57;nan
6853;BME280;3465;42.144;24.722;2023-08-24T02:59:30;148294.38;;;21.48;nan
6853;BME280;3465;42.144;24.722;2023-08-24T03:01:55;148256.47;;;21.33;nan
6853;BME280;3465;42.144;24.722;2023-08-24T03:04:21;148301.94;;;21.51;nan
6853;BME280;3465;42.144;24.722;2023-08-24T03:06:47;148295.66;;;21.48;nan
6853;BME280;3465;42.144;24.722;2023-08-24T03:09:12;148295.66;;;21.48;nan
6853;BME280;3465;42.144;24.722;2023-08-24T03:11:38;148285.53;;;21.44;nan
6853;BME280;3465;42.144;24.722;2023-08-24T03:14:03;148281.75;;;21.43;nan
6853;BME280;3465;42.144;24.722;2023-08-24T03:16:29;148277.94;;;21.41;nan
6853;BME280;3465;42.144;24.722;2023-08-24T03:18:54;148229.94;;;21.22;nan
6853;BME280;3465;42.144;24.722;2023-08-24T03:21:20;148253.94;;;21.32;nan
6853;BME280;3465;42.144;24.722;2023-08-24T03:23:45;148252.66;;;21.31;nan
6853;BME280;3465;42.144;24.722;2023-08-24T03:26:11;148242.59;;;21.27;nan
6853;BME280;3465;42.144;24.722;2023-08-24T03:28:36;148238.78;;;21.25;nan
6853;BME280;3465;42.144;24.722;2023-08-24T03:31:02;148247.66;;;21.29;nan
6853;BME280;3465;42.144;24.722;2023-08-24T03:33:27;148253.94;;;21.32;nan
6853;BME280;3465;42.144;24.722;2023-08-24T03:35:53;148221.09;;;21.18;nan
6853;BME280;3465;42.144;24.722;2023-08-24T03:38:19;148252.66;;;21.31;nan
6853;BME280;3465;42.144;24.722;2023-08-24T03:40:44;148245.09;;;21.28;nan
6853;BME280;3465;42.144;24.722;2023-08-24T03:43:10;148221.09;;;21.18;nan
6853;BME280;3465;42.144;24.722;2023-08-24T03:45:36;148222.38;;;21.19;nan
6853;BME280;3465;42.144;24.722;2023-08-24T03:48:02;148216.03;;;21.16;nan
6853;BME280;3465;42.144;24.722;2023-08-24T03:50:28;148211.00;;;21.14;nan
6853;BME280;3465;42.144;24.722;2023-08-24T03:52:54;148183.22;;;21.03;nan
6853;BME280;3465;42.144;24.722;2023-08-24T03:55:20;148203.44;;;21.11;nan
6853;BME280;3465;42.144;24.722;2023-08-24T03:57:45;148213.50;;;21.15;nan
6853;BME280;3465;42.144;24.722;2023-08-24T04:00:11;148205.94;;;21.12;nan
6853;BME280;3465;42.144;24.722;2023-08-24T04:02:46;148203.44;;;21.11;nan
6853;BME280;3465;42.144;24.722;2023-08-24T04:05:11;148183.22;;;21.03;nan
6853;BME280;3465;42.144;24.722;2023-08-24T04:07:37;148189.53;;;21.06;nan
6853;BME280;3465;42.144;24.722;2023-08-24T04:10:03;148197.09;;;21.09;nan
6853;BME280;3465;42.144;24.722;2023-08-24T04:12:32;148184.44;;;21.04;nan
6853;BME280;3465;42.144;24.722;2023-08-24T04:14:57;148205.94;;;21.12;nan
6853;BME280;3465;42.144;24.722;2023-08-24T04:17:24;148185.72;;;21.04;nan
6853;BME280;3465;42.144;24.722;2023-08-24T04:19:49;148190.78;;;21.06;nan
6853;BME280;3465;42.144;24.722;2023-08-24T04:22:15;148216.03;;;21.16;nan
6853;BME280;3465;42.144;24.722;2023-08-24T04:24:40;148143.97;;;20.88;nan
6853;BME280;3465;42.144;24.722;2023-08-24T04:27:06;148240.03;;;21.26;nan
6853;BME280;3465;42.144;24.722;2023-08-24T04:29:31;148219.81;;;21.18;nan
6853;BME280;3465;42.144;24.722;2023-08-24T04:31:57;148284.28;;;21.44;nan
6853;BME280;3465;42.144;24.722;2023-08-24T04:34:23;148307.03;;;21.53;nan
6853;BME280;3465;42.144;24.722;2023-08-24T04:36:48;148332.31;;;21.63;nan
6853;BME280;3465;42.144;24.722;2023-08-24T04:39:13;148353.75;;;21.71;nan
6853;BME280;3465;42.144;24.722;2023-08-24T04:41:39;148382.88;;;21.83;nan
6853;BME280;3465;42.144;24.722;2023-08-24T04:44:04;148387.97;;;21.85;nan
6853;BME280;3465;42.144;24.722;2023-08-24T04:46:30;148413.25;;;21.95;nan
6853;BME280;3465;42.144;24.722;2023-08-24T04:48:55;148439.78;;;22.05;nan
6853;BME280;3465;42.144;24.722;2023-08-24T04:51:20;148461.28;;;22.14;nan
6853;BME280;3465;42.144;24.722;2023-08-24T04:53:46;148481.53;;;22.22;nan
6853;BME280;3465;42.144;24.722;2023-08-24T04:56:11;148481.53;;;22.22;nan
6853;BME280;3465;42.144;24.722;2023-08-24T04:58:36;148515.63;;;22.35;nan
6853;BME280;3465;42.144;24.722;2023-08-24T05:01:02;148549.78;;;22.49;nan
6853;BME280;3465;42.144;24.722;2023-08-24T05:03:27;148577.66;;;22.60;nan
6853;BME280;3465;42.144;24.722;2023-08-24T05:05:53;148601.69;;;22.70;nan
6853;BME280;3465;42.144;24.722;2023-08-24T05:08:18;148627.00;;;22.80;nan
6853;BME280;3465;42.144;24.722;2023-08-24T05:10:43;148644.69;;;22.87;nan
6853;BME280;3465;42.144;24.722;2023-08-24T05:13:09;148676.34;;;22.99;nan
6853;BME280;3465;42.144;24.722;2023-08-24T05:15:34;148687.72;;;23.04;nan
6853;BME280;3465;42.144;24.722;2023-08-24T05:18:00;148754.81;;;23.30;nan
6853;BME280;3465;42.144;24.722;2023-08-24T05:20:26;148789.00;;;23.44;nan
6853;BME280;3465;42.144;24.722;2023-08-24T05:22:52;148863.66;;;23.73;nan
6853;BME280;3465;42.144;24.722;2023-08-24T05:25:20;148959.94;;;24.12;nan
6853;BME280;3465;42.144;24.722;2023-08-24T05:27:45;149006.78;;;24.30;nan
6853;BME280;3465;42.144;24.722;2023-08-24T05:30:11;149030.84;;;24.40;nan
6853;BME280;3465;42.144;24.722;2023-08-24T05:32:36;149041.00;;;24.44;nan
6853;BME280;3465;42.144;24.722;2023-08-24T05:35:05;149070.09;;;24.55;nan
6853;BME280;3465;42.144;24.722;2023-08-24T05:37:31;149111.97;;;24.72;nan
6853;BME280;3465;42.144;24.722;2023-08-24T05:39:56;149105.66;;;24.69;nan
6853;BME280;3465;42.144;24.722;2023-08-24T05:42:22;149151.22;;;24.87;nan
6853;BME280;3465;42.144;24.722;2023-08-24T05:44:47;149224.72;;;25.16;nan
6853;BME280;3465;42.144;24.722;2023-08-24T05:47:13;149332.50;;;25.59;nan
6853;BME280;3465;42.144;24.722;2023-08-24T05:49:38;149442.88;;;26.03;nan
6853;BME280;3465;42.144;24.722;2023-08-24T05:52:03;149573.47;;;26.54;nan
6853;BME280;3465;42.144;24.722;2023-08-24T05:54:29;149786.75;;;27.39;nan
6853;BME280;3465;42.144;24.722;2023-08-24T05:56:54;149903.53;;;27.85;nan
6853;BME280;3465;42.144;24.722;2023-08-24T05:59:20;149935.31;;;27.97;nan
6853;BME280;3465;42.144;24.722;2023-08-24T06:01:45;149960.72;;;28.08;nan
6853;BME280;3465;42.144;24.722;2023-08-24T06:04:11;149864.19;;;27.69;nan
6853;BME280;3465;42.144;24.722;2023-08-24T06:06:36;149846.41;;;27.62;nan
6853;BME280;3465;42.144;24.722;2023-08-24T06:09:02;150128.44;;;28.74;nan
6853;BME280;3465;42.144;24.722;2023-08-24T06:11:32;150352.16;;;29.62;nan
6853;BME280;3465;42.144;24.722;2023-08-24T06:13:58;150527.72;;;30.31;nan
6853;BME280;3465;42.144;24.722;2023-08-24T06:16:23;150644.81;;;30.78;nan
6853;BME280;3465;42.144;24.722;2023-08-24T06:18:48;150881.56;;;31.71;nan
6853;BME280;3465;42.144;24.722;2023-08-24T06:21:15;151160.53;;;32.81;nan
6853;BME280;3465;42.144;24.722;2023-08-24T06:23:41;151447.44;;;33.94;nan
6853;BME280;3465;42.144;24.722;2023-08-24T06:26:07;151322.47;;;33.45;nan
6853;BME280;3465;42.144;24.722;2023-08-24T06:28:33;151031.84;;;32.30;nan
6853;BME280;3465;42.144;24.722;2023-08-24T06:30:59;150681.69;;;30.92;nan
6853;BME280;3465;42.144;24.722;2023-08-24T06:33:29;150409.41;;;29.85;nan
6853;BME280;3465;42.144;24.722;2023-08-24T06:35:57;150246.66;;;29.20;nan
6853;BME280;3465;42.144;24.722;2023-08-24T06:38:22;150058.50;;;28.46;nan
6853;BME280;3465;42.144;24.722;2023-08-24T06:40:48;149944.22;;;28.01;nan
6853;BME280;3465;42.144;24.722;2023-08-24T06:43:14;149795.66;;;27.42;nan
6853;BME280;3465;42.144;24.722;2023-08-24T06:45:44;149654.69;;;26.87;nan
6853;BME280;3465;42.144;24.722;2023-08-24T06:48:09;149488.50;;;26.21;nan
6853;BME280;3465;42.144;24.722;2023-08-24T06:50:35;149299.56;;;25.46;nan
6853;BME280;3465;42.144;24.722;2023-08-24T06:53:02;149160.09;;;24.91;nan
6853;BME280;3465;42.144;24.722;2023-08-24T06:55:28;148968.78;;;24.15;nan
6853;BME280;3465;42.144;24.722;2023-08-24T06:57:54;148888.97;;;23.83;nan
6853;BME280;3465;42.144;24.722;2023-08-24T07:00:20;148866.22;;;23.74;nan
6853;BME280;3465;42.144;24.722;2023-08-24T07:02:49;148804.19;;;23.50;nan
6853;BME280;3465;42.144;24.722;2023-08-24T07:05:15;148786.44;;;23.43;nan
6853;BME280;3465;42.144;24.722;2023-08-24T07:07:44;148800.38;;;23.48;nan
6853;BME280;3465;42.144;24.722;2023-08-24T07:10:10;148766.19;;;23.35;nan
6853;BME280;3465;42.144;24.722;2023-08-24T07:12:36;148701.59;;;23.09;nan
6853;BME280;3465;42.144;24.722;2023-08-24T07:15:02;148608.03;;;22.72;nan
6853;BME280;3465;42.144;24.722;2023-08-24T07:17:27;148533.34;;;22.42;nan
6853;BME280;3465;42.144;24.722;2023-08-24T07:19:53;148690.22;;;23.05;nan
6853;BME280;3465;42.144;24.722;2023-08-24T07:22:19;148968.78;;;24.15;nan
6853;BME280;3465;42.144;24.722;2023-08-24T07:24:45;149261.47;;;25.31;nan
6853;BME280;3465;42.144;24.722;2023-08-24T07:27:10;149541.75;;;26.42;nan
6853;BME280;3465;42.144;24.722;2023-08-24T07:29:35;149512.56;;;26.30;nan
6853;BME280;3465;42.144;24.722;2023-08-24T07:32:01;149399.69;;;25.86;nan
6853;BME280;3465;42.144;24.722;2023-08-24T07:34:26;149278.00;;;25.38;nan
6853;BME280;3465;42.144;24.722;2023-08-24T07:36:54;149264.03;;;25.32;nan
6853;BME280;3465;42.144;24.722;2023-08-24T07:39:19;149281.78;;;25.39;nan
6853;BME280;3465;42.144;24.722;2023-08-24T07:41:45;149323.63;;;25.56;nan
6853;BME280;3465;42.144;24.722;2023-08-24T07:44:10;149347.72;;;25.65;nan
6853;BME280;3465;42.144;24.722;2023-08-24T07:46:38;149423.78;;;25.95;nan
6853;BME280;3465;42.144;24.722;2023-08-24T07:49:04;149563.34;;;26.50;nan
6853;BME280;3465;42.144;24.722;2023-08-24T07:51:29;149939.13;;;27.99;nan
6853;BME280;3465;42.144;24.722;2023-08-24T07:53:55;150237.75;;;29.17;nan
6853;BME280;3465;42.144;24.722;2023-08-24T07:56:20;150532.78;;;30.33;nan
6853;BME280;3465;42.144;24.722;2023-08-24T07:58:45;150977.06;;;32.08;nan
6853;BME280;3465;42.144;24.722;2023-08-24T08:01:11;151526.50;;;34.25;nan
6853;BME280;3465;42.144;24.722;2023-08-24T08:03:36;151988.56;;;36.07;nan
6853;BME280;3465;42.144;24.722;2023-08-24T08:06:02;152406.41;;;37.71;nan
6853;BME280;3465;42.144;24.722;2023-08-24T08:08:28;152709.47;;;38.90;nan
6853;BME280;3465;42.144;24.722;2023-08-24T08:11:01;152891.22;;;39.61;nan
6853;BME280;3465;42.144;24.722;2023-08-24T08:13:28;152754.28;;;39.07;nan
6853;BME280;3465;42.144;24.722;2023-08-24T08:16:00;153106.25;;;40.45;nan
6853;BME280;3465;42.144;24.722;2023-08-24T08:18:26;153318.91;;;41.29;nan
6853;BME280;3465;42.144;24.722;2023-08-24T08:20:51;153313.78;;;41.27;nan
6853;BME280;3465;42.144;24.722;2023-08-24T08:23:17;153056.34;;;40.26;nan
6853;BME280;3465;42.144;24.722;2023-08-24T08:25:43;152628.91;;;38.58;nan
6853;BME280;3465;42.144;24.722;2023-08-24T08:28:08;152382.06;;;37.61;nan
6853;BME280;3465;42.144;24.722;2023-08-24T08:30:33;152163.56;;;36.75;nan
6853;BME280;3465;42.144;24.722;2023-08-24T08:32:59;152048.56;;;36.30;nan
6853;BME280;3465;42.144;24.722;2023-08-24T08:35:26;152304.13;;;37.30;nan
6853;BME280;3465;42.144;24.722;2023-08-24T08:37:51;152402.56;;;37.69;nan
6853;BME280;3465;42.144;24.722;2023-08-24T08:40:20;152251.72;;;37.10;nan
6853;BME280;3465;42.144;24.722;2023-08-24T08:42:46;151915.72;;;35.78;nan
6853;BME280;3465;42.144;24.722;2023-08-24T08:45:12;151841.75;;;35.49;nan
6853;BME280;3465;42.144;24.722;2023-08-24T08:47:38;151687.22;;;34.88;nan
6853;BME280;3465;42.144;24.722;2023-08-24T08:50:04;151512.47;;;34.19;nan
6853;BME280;3465;42.144;24.722;2023-08-24T08:52:31;151340.31;;;33.52;nan
6853;BME280;3465;42.144;24.722;2023-08-24T08:54:56;151110.88;;;32.61;nan
6853;BME280;3465;42.144;24.722;2023-08-24T08:57:23;151025.50;;;32.28;nan
6853;BME280;3465;42.144;24.722;2023-08-24T08:59:50;151123.59;;;32.66;nan
6853;BME280;3465;42.144;24.722;2023-08-24T09:02:19;151456.38;;;33.97;nan
6853;BME280;3465;42.144;24.722;2023-08-24T09:04:45;151745.97;;;35.11;nan
6853;BME280;3465;42.144;24.722;2023-08-24T09:07:13;151805.94;;;35.35;nan
6853;BME280;3465;42.144;24.722;2023-08-24T09:09:39;151831.53;;;35.45;nan
6853;BME280;3465;42.144;24.722;2023-08-24T09:12:08;151952.81;;;35.92;nan
6853;BME280;3465;42.144;24.722;2023-08-24T09:14:33;152273.44;;;37.18;nan
6853;BME280;3465;42.144;24.722;2023-08-24T09:16:59;152587.97;;;38.42;nan
6853;BME280;3465;42.144;24.722;2023-08-24T09:19:32;152543.22;;;38.24;nan
6853;BME280;3465;42.144;24.722;2023-08-24T09:21:58;152484.34;;;38.01;nan
6853;BME280;3465;42.144;24.722;2023-08-24T09:24:31;152669.84;;;38.74;nan
6853;BME280;3465;42.144;24.722;2023-08-24T09:27:03;152961.63;;;39.88;nan
6853;BME280;3465;42.144;24.722;2023-08-24T09:29:39;153256.13;;;41.04;nan
6853;BME280;3465;42.144;24.722;2023-08-24T09:32:07;153309.94;;;41.25;nan
6853;BME280;3465;42.144;24.722;2023-08-24T09:34:33;153584.16;;;42.32;nan
6853;BME280;3465;42.144;24.722;2023-08-24T09:37:02;153695.75;;;42.76;nan
6853;BME280;3465;42.144;24.722;2023-08-24T09:39:30;153708.56;;;42.81;nan
6853;BME280;3465;42.144;24.722;2023-08-24T09:42:00;153653.41;;;42.60;nan
6853;BME280;3465;42.144;24.722;2023-08-24T09:44:28;153609.84;;;42.42;nan
6853;BME280;3465;42.144;24.722;2023-08-24T09:46:53;153338.13;;;41.36;nan
6853;BME280;3465;42.144;24.722;2023-08-24T09:49:19;152950.09;;;39.84;nan
6853;BME280;3465;42.144;24.722;2023-08-24T09:51:45;152554.72;;;38.29;nan
6853;BME280;3465;42.144;24.722;2023-08-24T09:54:11;152228.75;;;37.01;nan
6853;BME280;3465;42.144;24.722;2023-08-24T09:56:40;152023.03;;;36.20;nan
6853;BME280;3465;42.144;24.722;2023-08-24T09:59:14;151897.91;;;35.71;nan
6853;BME280;3465;42.144;24.722;2023-08-24T10:01:43;151812.38;;;35.37;nan
6853;BME280;3465;42.144;24.722;2023-08-24T10:04:09;151762.56;;;35.18;nan
6853;BME280;3465;42.144;24.722;2023-08-24T10:06:36;151678.34;;;34.85;nan
6853;BME280;3465;42.144;24.722;2023-08-24T10:09:06;151544.34;;;34.32;nan
6853;BME280;3465;42.144;24.722;2023-08-24T10:11:34;151444.91;;;33.93;nan
6853;BME280;3465;42.144;24.722;2023-08-24T10:16:52;151354.34;;;33.57;nan
6853;BME280;3465;42.144;24.722;2023-08-24T10:19:18;151378.56;;;33.67;nan
6853;BME280;3465;42.144;24.722;2023-08-24T10:21:44;151404.06;;;33.77;nan
6853;BME280;3465;42.144;24.722;2023-08-24T10:24:11;151509.94;;;34.18;nan
6853;BME280;3465;42.144;24.722;2023-08-24T10:26:39;151601.78;;;34.54;nan
6853;BME280;3465;42.144;24.722;2023-08-24T10:29:05;151618.34;;;34.61;nan
6853;BME280;3465;42.144;24.722;2023-08-24T10:31:31;151619.66;;;34.61;nan
6853;BME280;3465;42.144;24.722;2023-08-24T10:33:57;151575.00;;;34.44;nan
6853;BME280;3465;42.144;24.722;2023-08-24T10:36:23;151596.72;;;34.52;nan
6853;BME280;3465;42.144;24.722;2023-08-24T10:38:49;151654.06;;;34.75;nan
6853;BME280;3465;42.144;24.722;2023-08-24T10:41:15;151835.34;;;35.46;nan
6853;BME280;3465;42.144;24.722;2023-08-24T10:43:41;151843.00;;;35.49;nan
6853;BME280;3465;42.144;24.722;2023-08-24T10:46:14;151866.00;;;35.58;nan
6853;BME280;3465;42.144;24.722;2023-08-24T10:53:56;151794.47;;;35.30;nan
6853;BME280;3465;42.144;24.722;2023-08-24T10:56:35;152051.16;;;36.31;nan
6853;BME280;3465;42.144;24.722;2023-08-24T11:04:17;152804.16;;;39.27;nan
6853;BME280;3465;42.144;24.722;2023-08-24T11:06:57;152631.47;;;38.59;nan
6853;BME280;3465;42.144;24.722;2023-08-24T11:09:24;152503.56;;;38.09;nan
6853;BME280;3465;42.144;24.722;2023-08-24T11:12:01;152320.75;;;37.37;nan
6853;BME280;3465;42.144;24.722;2023-08-24T11:14:27;152223.63;;;36.99;nan
6853;BME280;3465;42.144;24.722;2023-08-24T11:17:00;152347.59;;;37.48;nan
6853;BME280;3465;42.144;24.722;2023-08-24T11:19:26;152585.44;;;38.41;nan
6853;BME280;3465;42.144;24.722;2023-08-24T11:21:51;152785.00;;;39.19;nan
6853;BME280;3465;42.144;24.722;2023-08-24T11:24:17;152982.13;;;39.97;nan
6853;BME280;3465;42.144;24.722;2023-08-24T11:26:47;153062.75;;;40.28;nan
6853;BME280;3465;42.144;24.722;2023-08-24T11:29:13;153069.19;;;40.31;nan
6853;BME280;3465;42.144;24.722;2023-08-24T11:31:39;153087.09;;;40.38;nan
6853;BME280;3465;42.144;24.722;2023-08-24T11:34:05;152984.66;;;39.98;nan
6853;BME280;3465;42.144;24.722;2023-08-24T11:36:41;152979.53;;;39.96;nan
6853;BME280;3465;42.144;24.722;2023-08-24T11:39:06;152809.28;;;39.29;nan
6853;BME280;3465;42.144;24.722;2023-08-24T11:41:32;152939.81;;;39.80;nan
6853;BME280;3465;42.144;24.722;2023-08-24T11:44:00;153048.66;;;40.23;nan
6853;BME280;3465;42.144;24.722;2023-08-24T11:46:28;153120.34;;;40.51;nan
6853;BME280;3465;42.144;24.722;2023-08-24T11:48:55;153133.16;;;40.56;nan
6853;BME280;3465;42.144;24.722;2023-08-24T11:51:20;153096.03;;;40.41;nan
6853;BME280;3465;42.144;24.722;2023-08-24T11:53:46;153079.41;;;40.35;nan
6853;BME280;3465;42.144;24.722;2023-08-24T11:56:13;153052.50;;;40.24;nan
6853;BME280;3465;42.144;24.722;2023-08-24T11:58:40;153143.38;;;40.60;nan
6853;BME280;3465;42.144;24.722;2023-08-24T12:01:06;153197.19;;;40.81;nan
6853;BME280;3465;42.144;24.722;2023-08-24T12:03:33;153152.34;;;40.63;nan
6853;BME280;3465;42.144;24.722;2023-08-24T12:06:00;153184.41;;;40.76;nan
6853;BME280;3465;42.144;24.722;2023-08-24T12:08:26;153245.84;;;41.00;nan
6853;BME280;3465;42.144;24.722;2023-08-24T12:10:51;153290.72;;;41.17;nan
6853;BME280;3465;42.144;24.722;2023-08-24T12:13:17;153294.59;;;41.19;nan
6853;BME280;3465;42.144;24.722;2023-08-24T12:15:42;153316.34;;;41.28;nan
6853;BME280;3465;42.144;24.722;2023-08-24T12:18:13;153393.22;;;41.58;nan
6853;BME280;3465;42.144;24.722;2023-08-24T12:20:40;153271.47;;;41.10;nan
6853;BME280;3465;42.144;24.722;2023-08-24T12:23:06;153348.34;;;41.40;nan
6853;BME280;3465;42.144;24.722;2023-08-24T12:25:36;153435.50;;;41.74;nan
6853;BME280;3465;42.144;24.722;2023-08-24T12:28:15;153386.81;;;41.55;nan
6853;BME280;3465;42.144;24.722;2023-08-24T12:30:51;153388.13;;;41.56;nan
6853;BME280;3465;42.144;24.722;2023-08-24T12:33:27;153409.88;;;41.64;nan
6853;BME280;3465;42.144;24.722;2023-08-24T12:35:53;153423.97;;;41.70;nan
6853;BME280;3465;42.144;24.722;2023-08-24T12:38:19;153443.16;;;41.77;nan
6853;BME280;3465;42.144;24.722;2023-08-24T12:40:45;153386.81;;;41.55;nan
6853;BME280;3465;42.144;24.722;2023-08-24T12:43:10;153341.97;;;41.38;nan
6853;BME280;3465;42.144;24.722;2023-08-24T12:45:36;153248.44;;;41.01;nan
6853;BME280;3465;42.144;24.722;2023-08-24T12:48:03;153071.72;;;40.32;nan
6853;BME280;3465;42.144;24.722;2023-08-24T12:50:29;152828.47;;;39.36;nan
6853;BME280;3465;42.144;24.722;2023-08-24T12:52:54;152619.91;;;38.54;nan
6853;BME280;3465;42.144;24.722;2023-08-24T12:55:23;152467.75;;;37.95;nan
6853;BME280;3465;42.144;24.722;2023-08-24T12:57:48;152343.78;;;37.46;nan
6853;BME280;3465;42.144;24.722;2023-08-24T13:00:14;152332.28;;;37.42;nan
6853;BME280;3465;42.144;24.722;2023-08-24T13:02:40;152199.34;;;36.89;nan
6853;BME280;3465;42.144;24.722;2023-08-24T13:05:05;152155.91;;;36.72;nan
6853;BME280;3465;42.144;24.722;2023-08-24T13:07:31;152149.47;;;36.70;nan
6853;BME280;3465;42.144;24.722;2023-08-24T13:09:57;152173.78;;;36.79;nan
6853;BME280;3465;42.144;24.722;2023-08-24T13:12:23;152236.41;;;37.04;nan
6853;BME280;3465;42.144;24.722;2023-08-24T13:14:49;152212.13;;;36.94;nan
6853;BME280;3465;42.144;24.722;2023-08-24T13:17:15;152224.91;;;36.99;nan
6853;BME280;3465;42.144;24.722;2023-08-24T13:19:40;152163.56;;;36.75;nan
6853;BME280;3465;42.144;24.722;2023-08-24T13:22:05;152100.97;;;36.51;nan
6853;BME280;3465;42.144;24.722;2023-08-24T13:24:33;152057.56;;;36.34;nan
6853;BME280;3465;42.144;24.722;2023-08-24T13:26:58;151994.94;;;36.09;nan
6853;BME280;3465;42.144;24.722;2023-08-24T13:29:24;151841.75;;;35.49;nan
6853;BME280;3465;42.144;24.722;2023-08-24T13:31:50;151901.72;;;35.72;nan
6853;BME280;3465;42.144;24.722;2023-08-24T13:34:15;151877.47;;;35.63;nan
6853;BME280;3465;42.144;24.722;2023-08-24T13:36:41;151836.63;;;35.47;nan
6853;BME280;3465;42.144;24.722;2023-08-24T13:39:06;151682.16;;;34.86;nan